createdAt,value
2017-07-15T00:00:05.114Z,997.53
2017-07-15T00:01:15.474Z,997.53
2017-07-15T00:02:25.842Z,997.56
2017-07-15T00:03:36.246Z,997.54
2017-07-15T00:04:46.299Z,997.46
2017-07-15T00:05:56.653Z,997.44
2017-07-15T00:07:06.998Z,997.47
2017-07-15T00:08:17.031Z,997.47
2017-07-15T00:09:27.477Z,997.48
2017-07-15T00:10:37.881Z,997.43
2017-07-15T00:11:48.341Z,997.47
2017-07-15T00:12:58.726Z,997.48
2017-07-15T00:14:09.104Z,997.46
2017-07-15T00:15:19.452Z,997.4
2017-07-15T00:16:29.810Z,997.37
2017-07-15T00:17:40.214Z,997.35
2017-07-15T00:18:50.598Z,997.33
2017-07-15T00:20:00.969Z,997.31
2017-07-15T00:21:11.063Z,997.29
2017-07-15T00:22:20.772Z,997.31
2017-07-15T00:23:30.798Z,997.27
2017-07-15T00:24:41.150Z,997.26
2017-07-15T00:25:51.497Z,997.3
2017-07-15T00:27:01.895Z,997.29
2017-07-15T00:28:12.246Z,997.23
2017-07-15T00:29:22.597Z,997.28
2017-07-15T00:30:32.955Z,997.3
2017-07-15T00:31:42.673Z,997.24
2017-07-15T00:32:52.715Z,997.28
2017-07-15T00:34:03.074Z,997.31
2017-07-15T00:35:13.422Z,997.24
2017-07-15T00:36:23.479Z,997.27
2017-07-15T00:37:33.825Z,997.27
2017-07-15T00:38:43.916Z,997.24
2017-07-15T00:39:54.277Z,997.23
2017-07-15T00:41:04.305Z,997.25
2017-07-15T00:42:14.660Z,997.26
2017-07-15T00:43:25.014Z,997.24
2017-07-15T00:44:35.432Z,997.22
2017-07-15T00:45:45.799Z,997.26
2017-07-15T00:46:56.153Z,997.32
2017-07-15T00:48:06.510Z,997.32
2017-07-15T00:49:16.850Z,997.31
2017-07-15T00:50:27.255Z,997.3
2017-07-15T00:51:37.620Z,997.31
2017-07-15T00:52:47.339Z,997.29
2017-07-15T00:53:57.388Z,997.3
2017-07-15T00:55:07.727Z,997.34
2017-07-15T00:56:17.498Z,997.35
2017-07-15T00:57:27.851Z,997.36
2017-07-15T00:58:38.212Z,997.38
2017-07-15T00:59:48.567Z,997.41
2017-07-15T01:00:58.931Z,997.41
2017-07-15T01:02:09.310Z,997.41
2017-07-15T01:03:19.342Z,997.39
2017-07-15T01:04:29.706Z,997.39
2017-07-15T01:05:40.061Z,997.43
2017-07-15T01:06:50.098Z,997.45
2017-07-15T01:08:00.458Z,997.4
2017-07-15T01:09:10.822Z,997.36
2017-07-15T01:10:21.163Z,997.32
2017-07-15T01:11:31.502Z,997.29
2017-07-15T01:12:41.536Z,997.25
2017-07-15T01:13:51.655Z,997.25
2017-07-15T01:15:02.017Z,997.27
2017-07-15T01:16:12.383Z,997.23
2017-07-15T01:17:22.747Z,997.23
2017-07-15T01:18:33.111Z,997.22
2017-07-15T01:19:43.458Z,997.26
2017-07-15T01:20:53.494Z,997.22
2017-07-15T01:22:03.529Z,997.12
2017-07-15T01:23:13.886Z,997.08
2017-07-15T01:24:24.233Z,997.1
2017-07-15T01:25:34.593Z,997.09
2017-07-15T01:26:44.942Z,997.08
2017-07-15T01:27:54.985Z,997.11
2017-07-15T01:29:05.049Z,997.07
2017-07-15T01:30:15.400Z,997.05
2017-07-15T01:31:25.806Z,997.03
2017-07-15T01:32:36.151Z,997.07
2017-07-15T01:33:46.506Z,997.06
2017-07-15T01:34:56.542Z,997.07
2017-07-15T01:36:06.894Z,997.06
2017-07-15T01:37:17.323Z,997.08
2017-07-15T01:38:27.675Z,997.07
2017-07-15T01:39:38.031Z,997.07
2017-07-15T01:40:48.060Z,997.08
2017-07-15T01:41:58.416Z,997.04
2017-07-15T01:43:08.497Z,997.07
2017-07-15T01:44:18.534Z,997.1
2017-07-15T01:45:28.565Z,997.08
2017-07-15T01:46:38.611Z,997.12
2017-07-15T01:47:48.669Z,997.16
2017-07-15T01:48:58.983Z,997.16
2017-07-15T01:50:09.011Z,997.16
2017-07-15T01:51:19.348Z,997.2
2017-07-15T01:52:29.373Z,997.16
2017-07-15T01:53:39.727Z,997.21
2017-07-15T01:54:50.073Z,997.2
2017-07-15T01:56:00.096Z,997.18
2017-07-15T01:57:10.442Z,997.19
2017-07-15T01:58:20.809Z,997.15
2017-07-15T01:59:31.162Z,997.18
2017-07-15T02:00:41.207Z,997.17
2017-07-15T02:01:51.246Z,997.18
2017-07-15T02:03:01.602Z,997.2
2017-07-15T02:04:11.639Z,997.19
2017-07-15T02:05:21.683Z,997.18
2017-07-15T02:06:32.022Z,997.2
2017-07-15T02:07:42.057Z,997.21
2017-07-15T02:08:52.413Z,997.2
2017-07-15T02:10:02.759Z,997.19
2017-07-15T02:11:13.111Z,997.22
2017-07-15T02:12:23.474Z,997.16
2017-07-15T02:13:33.819Z,997.22
2017-07-15T02:14:44.179Z,997.18
2017-07-15T02:15:54.202Z,997.2
2017-07-15T02:17:04.591Z,997.13
2017-07-15T02:18:14.951Z,997.16
2017-07-15T02:19:25.314Z,997.13
2017-07-15T02:20:35.035Z,997.16
2017-07-15T02:21:45.392Z,997.16
2017-07-15T02:22:55.750Z,997.13
2017-07-15T02:24:06.106Z,997.13
2017-07-15T02:25:16.454Z,997.1
2017-07-15T02:26:26.794Z,997.13
2017-07-15T02:27:36.837Z,997.11
2017-07-15T02:28:46.870Z,997.09
2017-07-15T02:29:56.947Z,997.11
2017-07-15T02:31:06.982Z,997.07
2017-07-15T02:32:17.013Z,997.03
2017-07-15T02:33:27.400Z,997.01
2017-07-15T02:34:37.418Z,996.98
2017-07-15T02:35:47.814Z,997.01
2017-07-15T02:36:57.531Z,996.95
2017-07-15T02:38:07.878Z,996.91
2017-07-15T02:39:18.220Z,996.95
2017-07-15T02:40:28.558Z,996.98
2017-07-15T02:41:38.893Z,996.96
2017-07-15T02:42:48.907Z,996.98
2017-07-15T02:43:58.629Z,996.96
2017-07-15T02:45:08.664Z,996.99
2017-07-15T02:46:19.031Z,996.96
2017-07-15T02:47:29.437Z,996.96
2017-07-15T02:48:39.788Z,996.98
2017-07-15T02:49:49.491Z,997.03
2017-07-15T02:50:59.848Z,997.01
2017-07-15T02:52:10.207Z,997.04
2017-07-15T02:53:20.615Z,997.13
2017-07-15T02:54:30.964Z,997.15
2017-07-15T02:55:41.326Z,997.17
2017-07-15T02:56:51.357Z,997.15
2017-07-15T02:58:01.384Z,997.16
2017-07-15T02:59:11.781Z,997.21
2017-07-15T03:00:22.127Z,997.2
2017-07-15T03:01:32.159Z,997.23
2017-07-15T03:33:19.807Z,997.39
2017-07-15T03:34:29.847Z,997.42
2017-07-15T03:35:39.868Z,997.42
2017-07-15T03:36:50.226Z,997.39
2017-07-15T03:38:00.581Z,997.37
2017-07-15T03:39:10.976Z,997.36
2017-07-15T03:40:20.691Z,997.39
2017-07-15T03:41:31.054Z,997.36
2017-07-15T03:42:41.080Z,997.38
2017-07-15T03:43:51.424Z,997.38
2017-07-15T03:45:01.831Z,997.39
2017-07-15T03:46:12.178Z,997.43
2017-07-15T03:47:22.531Z,997.41
2017-07-15T03:48:32.560Z,997.47
2017-07-15T03:49:42.912Z,997.49
2017-07-15T03:50:53.315Z,997.49
2017-07-15T03:52:03.363Z,997.51
2017-07-15T03:53:13.421Z,997.53
2017-07-15T03:54:23.450Z,997.58
2017-07-15T03:55:33.507Z,997.61
2017-07-15T03:56:43.259Z,997.57
2017-07-15T03:57:53.295Z,997.63
2017-07-15T03:59:03.314Z,997.62
2017-07-15T04:00:13.678Z,997.67
2017-07-15T04:01:24.029Z,997.66
2017-07-15T04:02:34.128Z,997.67
2017-07-15T04:03:44.461Z,997.65
2017-07-15T04:04:54.806Z,997.66
2017-07-15T04:06:05.169Z,997.66
2017-07-15T04:07:15.526Z,997.71
2017-07-15T04:08:25.901Z,997.68
2017-07-15T04:09:35.939Z,997.75
2017-07-15T04:10:46.288Z,997.8
2017-07-15T04:11:56.642Z,997.78
2017-07-15T04:13:06.678Z,997.83
2017-07-15T04:14:17.037Z,997.83
2017-07-15T04:15:27.391Z,997.84
2017-07-15T04:16:37.750Z,997.84
2017-07-15T04:17:48.100Z,997.87
2017-07-15T04:18:57.811Z,997.84
2017-07-15T04:20:08.206Z,997.89
2017-07-15T04:21:18.242Z,997.9
2017-07-15T04:22:28.597Z,997.89
2017-07-15T04:23:38.617Z,997.91
2017-07-15T04:24:48.966Z,997.92
2017-07-15T04:25:59.062Z,997.94
2017-07-15T04:27:09.457Z,998.12
2017-07-15T04:28:19.805Z,998.46
2017-07-15T04:29:30.157Z,998.62
2017-07-15T04:30:40.512Z,998.65
2017-07-15T04:31:50.533Z,998.7
2017-07-15T04:33:00.890Z,998.69
2017-07-15T04:34:11.229Z,998.82
2017-07-15T04:35:21.597Z,998.73
2017-07-15T04:36:31.959Z,998.68
2017-07-15T04:37:42.362Z,998.66
2017-07-15T04:38:52.393Z,998.57
2017-07-15T04:40:02.440Z,998.38
2017-07-15T04:41:12.793Z,998.56
2017-07-15T04:42:23.143Z,998.32
2017-07-15T04:43:33.267Z,998.34
2017-07-15T04:44:43.292Z,998.18
2017-07-15T04:45:53.328Z,998.18
2017-07-15T04:47:03.687Z,998.18
2017-07-15T04:48:13.744Z,998.19
2017-07-15T04:49:24.154Z,998.21
2017-07-15T04:50:34.197Z,998.2
2017-07-15T04:51:43.928Z,998.26
2017-07-15T04:52:54.294Z,998.2
2017-07-15T04:54:04.649Z,998.21
2017-07-15T04:55:15.004Z,998.15
2017-07-15T04:56:25.375Z,998.14
2017-07-15T04:57:35.092Z,998.22
2017-07-15T04:58:45.120Z,998.29
2017-07-15T04:59:55.143Z,998.35
2017-07-15T05:01:05.558Z,998.39
2017-07-15T05:02:15.916Z,998.39
2017-07-15T05:03:26.286Z,998.42
2017-07-15T05:04:36.642Z,998.44
2017-07-15T05:05:46.669Z,998.42
2017-07-15T05:06:56.766Z,998.52
2017-07-15T05:08:07.138Z,998.43
2017-07-15T05:09:17.487Z,998.56
2017-07-15T05:10:27.837Z,998.48
2017-07-15T05:11:38.208Z,998.47
2017-07-15T05:12:48.295Z,998.51
2017-07-15T05:13:58.633Z,998.55
2017-07-15T05:15:08.679Z,998.52
2017-07-15T05:16:18.392Z,998.52
2017-07-15T05:17:28.432Z,998.32
2017-07-15T05:18:38.529Z,998.33
2017-07-15T05:19:48.256Z,998.33
2017-07-15T05:20:58.649Z,998.33
2017-07-15T05:22:08.989Z,998.31
2017-07-15T05:23:19.330Z,998.38
2017-07-15T05:24:28.965Z,998.41
2017-07-15T05:25:39.024Z,998.4
2017-07-15T05:26:49.391Z,998.42
2017-07-15T05:27:59.733Z,998.47
2017-07-15T05:29:09.783Z,998.43
2017-07-15T05:30:20.138Z,998.48
2017-07-15T05:31:30.173Z,998.45
2017-07-15T05:32:40.201Z,998.42
2017-07-15T05:33:50.591Z,998.48
2017-07-15T05:35:00.938Z,998.54
2017-07-15T05:36:11.365Z,998.47
2017-07-15T05:37:21.403Z,998.52
2017-07-15T05:38:31.459Z,998.58
2017-07-15T05:39:41.820Z,998.56
2017-07-15T05:40:52.172Z,998.66
2017-07-15T05:42:02.578Z,998.63
2017-07-15T05:43:12.930Z,998.59
2017-07-15T05:44:22.957Z,998.66
2017-07-15T05:45:33.319Z,998.63
2017-07-15T05:46:43.675Z,998.72
2017-07-15T05:47:53.763Z,998.63
2017-07-15T05:49:04.132Z,998.68
2017-07-15T05:50:14.508Z,998.68
2017-07-15T05:51:24.541Z,998.7
2017-07-15T05:52:34.897Z,998.69
2017-07-15T05:53:45.252Z,998.71
2017-07-15T05:54:55.600Z,998.76
2017-07-15T05:56:05.956Z,998.7
2017-07-15T05:57:15.668Z,998.71
2017-07-15T05:58:26.045Z,998.75
2017-07-15T05:59:36.441Z,998.79
2017-07-15T06:00:46.789Z,998.77
2017-07-15T06:01:57.136Z,998.82
2017-07-15T06:03:07.492Z,998.77
2017-07-15T06:04:17.842Z,998.91
2017-07-15T06:05:27.870Z,998.79
2017-07-15T06:06:38.228Z,998.74
2017-07-15T06:07:48.575Z,998.78
2017-07-15T06:08:58.930Z,998.79
2017-07-15T06:10:09.288Z,998.77
2017-07-15T06:11:19.710Z,998.87
2017-07-15T06:12:29.752Z,998.87
2017-07-15T06:13:40.107Z,998.87
2017-07-15T06:14:50.140Z,998.79
2017-07-15T06:16:00.482Z,998.85
2017-07-15T06:17:10.884Z,998.9
2017-07-15T06:18:21.245Z,998.86
2017-07-15T06:19:31.297Z,998.93
2017-07-15T06:20:41.649Z,998.86
2017-07-15T06:21:52.016Z,998.9
2017-07-15T06:23:02.367Z,998.91
2017-07-15T06:24:12.379Z,998.9
2017-07-15T06:25:22.742Z,998.89
2017-07-15T06:26:32.769Z,998.85
2017-07-15T06:27:43.121Z,998.87
2017-07-15T06:28:53.198Z,998.94
2017-07-15T06:30:03.552Z,998.91
2017-07-15T06:31:13.583Z,998.92
2017-07-15T06:32:23.302Z,998.95
2017-07-15T06:33:33.648Z,998.99
2017-07-15T06:34:43.721Z,998.99
2017-07-15T06:35:53.756Z,999.03
2017-07-15T06:37:04.090Z,998.97
2017-07-15T06:38:14.129Z,999.03
2017-07-15T06:39:24.154Z,999.03
2017-07-15T06:40:34.176Z,999.03
2017-07-15T06:41:43.896Z,999.05
2017-07-15T06:42:54.252Z,999.06
2017-07-15T06:44:04.604Z,999.09
2017-07-15T06:45:14.626Z,999.1
2017-07-15T06:46:25.053Z,999.12
2017-07-15T06:47:35.417Z,999.1
2017-07-15T06:48:45.771Z,999.2
2017-07-15T06:49:55.497Z,999.11
2017-07-15T06:51:05.849Z,999.19
2017-07-15T06:52:16.254Z,999.24
2017-07-15T06:53:26.609Z,999.2
2017-07-15T06:54:36.643Z,999.23
2017-07-15T06:55:46.991Z,999.31
2017-07-15T06:56:56.716Z,999.24
2017-07-15T06:58:06.809Z,999.18
2017-07-15T06:59:16.841Z,999.2
2017-07-15T07:00:27.195Z,999.26
2017-07-15T07:01:37.559Z,999.18
2017-07-15T07:02:47.912Z,999.25
2017-07-15T07:03:58.006Z,999.21
2017-07-15T07:05:08.016Z,999.26
2017-07-15T07:06:18.393Z,999.22
2017-07-15T07:07:28.774Z,999.29
2017-07-15T07:08:38.496Z,999.26
2017-07-15T07:09:48.909Z,999.31
2017-07-15T07:10:59.279Z,999.32
2017-07-15T07:12:09.638Z,999.27
2017-07-15T07:13:19.673Z,999.31
2017-07-15T07:14:29.719Z,999.3
2017-07-15T07:15:39.753Z,999.37
2017-07-15T07:16:50.103Z,999.28
2017-07-15T07:18:00.145Z,999.31
2017-07-15T07:19:09.876Z,999.41
2017-07-15T07:20:20.270Z,999.36
2017-07-15T07:21:30.694Z,999.41
2017-07-15T07:22:41.043Z,999.4
2017-07-15T07:23:51.380Z,999.38
2017-07-15T07:25:01.724Z,999.46
2017-07-15T07:26:12.102Z,999.48
2017-07-15T07:27:22.495Z,999.48
2017-07-15T07:28:32.840Z,999.52
2017-07-15T07:29:42.883Z,999.51
2017-07-15T07:30:53.244Z,999.54
2017-07-15T07:32:03.597Z,999.53
2017-07-15T07:33:13.682Z,999.49
2017-07-15T07:34:24.037Z,999.57
2017-07-15T07:35:34.400Z,999.59
2017-07-15T07:36:44.768Z,999.59
2017-07-15T07:37:55.128Z,999.53
2017-07-15T07:39:05.157Z,999.64
2017-07-15T07:40:15.518Z,999.6
2017-07-15T07:41:25.560Z,999.58
2017-07-15T07:42:35.902Z,999.58
2017-07-15T07:43:46.263Z,999.65
2017-07-15T07:44:56.616Z,999.76
2017-07-15T07:46:06.974Z,999.65
2017-07-15T07:47:17.345Z,999.63
2017-07-15T07:48:27.697Z,999.69
2017-07-15T07:49:37.733Z,999.65
2017-07-15T07:50:48.074Z,999.74
2017-07-15T07:51:58.116Z,999.64
2017-07-15T07:53:08.473Z,999.7
2017-07-15T07:54:18.510Z,999.72
2017-07-15T07:55:28.542Z,999.82
2017-07-15T07:56:38.923Z,999.79
2017-07-15T07:57:48.967Z,999.76
2017-07-15T07:58:58.681Z,999.7
2017-07-15T08:00:09.038Z,999.82
2017-07-15T08:01:19.076Z,999.76
2017-07-15T08:02:29.114Z,999.75
2017-07-15T08:03:39.143Z,999.75
2017-07-15T08:04:49.506Z,999.75
2017-07-15T08:05:59.869Z,999.73
2017-07-15T08:07:10.226Z,999.77
2017-07-15T08:08:20.261Z,999.75
2017-07-15T08:09:30.289Z,999.7
2017-07-15T08:10:40.650Z,999.81
2017-07-15T08:11:51.001Z,999.79
2017-07-15T08:13:01.037Z,999.82
2017-07-15T08:14:11.458Z,999.84
2017-07-15T08:15:21.796Z,999.87
2017-07-15T08:16:32.145Z,999.87
2017-07-15T08:17:42.487Z,999.95
2017-07-15T08:18:52.860Z,999.83
2017-07-15T08:20:02.947Z,999.87
2017-07-15T08:21:12.971Z,999.85
2017-07-15T08:22:23.337Z,999.89
2017-07-15T08:23:33.681Z,999.9
2017-07-15T08:24:43.716Z,999.92
2017-07-15T08:25:54.077Z,999.99
2017-07-15T08:27:04.430Z,999.95
2017-07-15T08:28:14.781Z,999.94
2017-07-15T08:29:24.828Z,999.88
2017-07-15T08:30:35.192Z,999.95
2017-07-15T08:31:45.549Z,999.92
2017-07-15T08:32:55.587Z,999.89
2017-07-15T08:34:05.639Z,999.91
2017-07-15T08:35:15.686Z,999.94
2017-07-15T08:36:25.735Z,999.91
2017-07-15T08:37:36.106Z,999.99
2017-07-15T08:38:46.181Z,999.9
2017-07-15T08:39:56.555Z,999.92
2017-07-15T08:41:06.609Z,999.98
2017-07-15T08:42:16.965Z,999.99
2017-07-15T08:43:27.382Z,999.98
2017-07-15T08:44:37.745Z,999.95
2017-07-15T08:45:47.790Z,999.97
2017-07-15T08:46:57.834Z,999.98
2017-07-15T08:48:07.914Z,1000.04
2017-07-15T08:49:18.257Z,1000.04
2017-07-15T08:50:28.322Z,999.99
2017-07-15T08:51:38.674Z,1000.04
2017-07-15T08:52:49.043Z,1000.07
2017-07-15T08:53:59.428Z,1000.12
2017-07-15T08:55:09.524Z,1000.06
2017-07-15T08:56:19.877Z,1000.05
2017-07-15T08:57:29.923Z,1000.1
2017-07-15T08:58:39.715Z,1000.33
2017-07-15T08:59:49.755Z,1000.15
2017-07-15T09:01:00.163Z,1000.13
2017-07-15T09:02:09.904Z,1000.09
2017-07-15T09:03:19.942Z,1000.24
2017-07-15T09:04:30.274Z,1000.2
2017-07-15T09:05:40.650Z,1000.19
2017-07-15T09:06:50.847Z,1000.26
2017-07-15T09:08:01.199Z,1000.25
2017-07-15T09:09:11.568Z,1000.24
2017-07-15T09:10:21.604Z,1000.23
2017-07-15T09:11:31.644Z,1000.32
2017-07-15T09:12:42.070Z,1000.3
2017-07-15T09:13:52.458Z,1000.26
2017-07-15T09:15:02.815Z,1000.32
2017-07-15T09:16:12.851Z,1000.23
2017-07-15T09:17:22.877Z,1000.34
2017-07-15T09:18:33.299Z,1000.41
2017-07-15T09:19:43.329Z,1000.39
2017-07-15T09:20:52.401Z,1000.32
2017-07-15T09:22:02.442Z,1000.36
2017-07-15T09:23:12.477Z,1000.45
2017-07-15T09:24:22.559Z,1000.38
2017-07-15T09:25:32.924Z,1000.39
2017-07-15T09:26:42.647Z,1000.36
2017-07-15T09:27:53.004Z,1000.4
2017-07-15T09:29:03.349Z,1000.34
2017-07-15T09:30:13.457Z,1000.33
2017-07-15T09:31:23.817Z,1000.38
2017-07-15T09:32:34.170Z,1000.29
2017-07-15T09:33:44.502Z,1000.35
2017-07-15T09:34:57.307Z,1000.33
2017-07-15T09:36:09.648Z,1000.32
2017-07-15T09:37:21.249Z,1000.43
2017-07-15T09:38:33.822Z,1000.42
2017-07-15T09:39:45.599Z,1000.5
2017-07-15T09:40:57.479Z,1000.45
2017-07-15T09:42:07.960Z,1000.51
2017-07-15T09:43:18.587Z,1000.55
2017-07-15T09:44:29.516Z,1000.44
2017-07-15T09:45:40.778Z,1000.5
2017-07-15T09:46:52.808Z,1000.37
2017-07-15T09:48:05.812Z,1000.48
2017-07-15T09:49:18.210Z,1000.48
2017-07-15T09:50:28.642Z,1000.49
2017-07-15T09:51:39.316Z,1000.53
2017-07-15T09:52:49.379Z,1000.55
2017-07-15T09:53:59.880Z,1000.54
2017-07-15T09:55:10.025Z,1000.55
2017-07-15T09:56:19.821Z,1000.58
2017-07-15T09:57:29.913Z,1000.53
2017-07-15T09:58:40.530Z,1000.55
2017-07-15T09:59:52.490Z,1000.59
2017-07-15T10:01:04.249Z,1000.53
2017-07-15T10:02:14.720Z,1000.57
2017-07-15T10:03:25.217Z,1000.61
2017-07-15T10:04:35.645Z,1000.69
2017-07-15T10:05:46.060Z,1000.62
2017-07-15T10:06:56.509Z,1000.66
2017-07-15T10:08:06.761Z,1000.65
2017-07-15T10:09:18.021Z,1000.69
2017-07-15T10:10:29.198Z,1000.64
2017-07-15T10:11:40.457Z,1000.78
2017-07-15T10:12:51.088Z,1000.7
2017-07-15T10:14:01.187Z,1000.78
2017-07-15T10:15:10.910Z,1000.72
2017-07-15T10:16:20.974Z,1000.76
2017-07-15T10:17:31.334Z,1000.73
2017-07-15T10:18:41.720Z,1000.72
2017-07-15T10:19:52.138Z,1000.69
2017-07-15T10:21:02.179Z,1000.67
2017-07-15T10:22:12.220Z,1000.65
2017-07-15T10:23:22.579Z,1000.67
2017-07-15T10:24:32.925Z,1000.65
2017-07-15T10:25:43.337Z,1000.59
2017-07-15T10:26:53.073Z,1000.64
2017-07-15T10:28:03.443Z,1000.64
2017-07-15T10:29:13.804Z,1000.64
2017-07-15T10:30:23.855Z,1000.7
2017-07-15T10:31:34.192Z,1000.64
2017-07-15T10:32:44.552Z,1000.65
2017-07-15T10:33:54.910Z,1000.65
2017-07-15T10:35:04.968Z,1000.65
2017-07-15T10:36:15.321Z,1000.62
2017-07-15T10:37:25.360Z,1000.64
2017-07-15T10:38:35.712Z,1000.56
2017-07-15T10:39:46.098Z,1000.57
2017-07-15T10:40:56.482Z,1000.53
2017-07-15T10:42:06.882Z,1000.61
2017-07-15T10:43:16.960Z,1000.64
2017-07-15T10:44:27.007Z,1000.58
2017-07-15T10:45:37.388Z,1000.58
2017-07-15T10:46:47.737Z,1000.56
2017-07-15T10:47:57.816Z,1000.61
2017-07-15T10:49:08.162Z,1000.52
2017-07-15T10:50:18.210Z,1000.54
2017-07-15T10:51:28.576Z,1000.55
2017-07-15T10:52:38.634Z,1000.52
2017-07-15T10:53:48.681Z,1000.58
2017-07-15T10:54:58.448Z,1000.62
2017-07-15T10:56:08.507Z,1000.48
2017-07-15T10:57:19.031Z,1000.5
2017-07-15T10:58:29.410Z,1000.54
2017-07-15T10:59:39.835Z,1000.56
2017-07-15T11:00:50.227Z,1000.55
2017-07-15T11:02:00.610Z,1000.54
2017-07-15T11:03:10.997Z,1000.54
2017-07-15T11:04:21.048Z,1000.51
2017-07-15T11:05:31.436Z,1000.58
2017-07-15T11:06:41.831Z,1000.58
2017-07-15T11:07:51.900Z,1000.54
2017-07-15T11:09:02.272Z,1000.55
2017-07-15T11:10:12.646Z,1000.49
2017-07-15T11:11:23.027Z,1000.45
2017-07-15T11:12:33.406Z,1000.42
2017-07-15T11:13:43.804Z,1000.43
2017-07-15T11:14:54.209Z,1000.39
2017-07-15T11:16:04.301Z,1000.43
2017-07-15T11:17:14.678Z,1000.38
2017-07-15T11:18:25.052Z,1000.36
2017-07-15T11:19:35.119Z,1000.42
2017-07-15T11:20:45.543Z,1000.39
2017-07-15T11:21:56.083Z,1000.38
2017-07-15T11:23:06.439Z,1000.42
2017-07-15T11:24:16.506Z,1000.35
2017-07-15T11:25:26.865Z,1000.32
2017-07-15T11:26:36.958Z,1000.32
2017-07-15T11:27:47.335Z,1000.35
2017-07-15T11:28:57.693Z,1000.36
2017-07-15T11:30:08.043Z,1000.33
2017-07-15T11:31:18.818Z,1000.35
2017-07-15T11:32:30.883Z,1000.36
2017-07-15T11:33:41.234Z,1000.39
2017-07-15T11:34:51.633Z,1000.41
2017-07-15T11:36:02.046Z,1000.42
2017-07-15T11:37:12.462Z,1000.41
2017-07-15T11:38:22.846Z,1000.43
2017-07-15T11:39:33.287Z,1000.47
2017-07-15T11:40:44.179Z,1000.49
2017-07-15T11:41:54.286Z,1000.49
2017-07-15T11:43:04.062Z,1000.54
2017-07-15T11:44:14.611Z,1000.52
2017-07-15T11:45:25.031Z,1000.43
2017-07-15T11:46:35.090Z,1000.47
2017-07-15T11:47:45.130Z,1000.42
2017-07-15T11:48:55.518Z,1000.56
2017-07-15T11:50:05.951Z,1000.46
2017-07-15T11:51:16.046Z,1000.55
2017-07-15T11:52:26.426Z,1000.42
2017-07-15T11:53:36.990Z,1000.44
2017-07-15T11:54:49.345Z,1000.38
2017-07-15T11:56:01.226Z,1000.38
2017-07-15T11:57:15.133Z,1000.36
2017-07-15T11:58:28.891Z,1000.34
2017-07-15T11:59:41.067Z,1000.34
2017-07-15T12:00:53.270Z,1000.4
2017-07-15T12:02:04.797Z,1000.34
2017-07-15T12:03:14.672Z,1000.3
2017-07-15T12:04:25.125Z,1000.28
2017-07-15T12:05:35.564Z,1000.25
2017-07-15T12:06:46.042Z,1000.31
2017-07-15T12:07:55.838Z,1000.35
2017-07-15T12:09:06.257Z,1000.35
2017-07-15T12:10:16.726Z,1000.35
2017-07-15T12:11:27.161Z,1000.4
2017-07-15T12:12:37.615Z,1000.32
2017-07-15T12:13:48.085Z,1000.32
2017-07-15T12:14:58.274Z,1000.29
2017-07-15T12:16:08.678Z,1000.3
2017-07-15T12:17:19.229Z,1000.37
2017-07-15T12:18:29.671Z,1000.3
2017-07-15T12:19:40.090Z,1000.27
2017-07-15T12:20:50.152Z,1000.27
2017-07-15T12:22:00.533Z,1000.3
2017-07-15T12:23:10.921Z,1000.34
2017-07-15T12:24:20.746Z,1000.29
2017-07-15T12:25:31.158Z,1000.31
2017-07-15T12:26:41.568Z,1000.28
2017-07-15T12:27:52.036Z,1000.28
2017-07-15T12:29:02.426Z,1000.3
2017-07-15T12:30:12.817Z,1000.28
2017-07-15T12:31:23.213Z,1000.31
2017-07-15T12:32:33.327Z,1000.26
2017-07-15T12:33:43.670Z,1000.26
2017-07-15T12:34:54.037Z,1000.31
2017-07-15T12:36:04.109Z,1000.29
2017-07-15T12:37:14.158Z,1000.28
2017-07-15T12:38:24.548Z,1000.27
2017-07-15T12:39:34.903Z,1000.26
2017-07-15T12:40:45.266Z,1000.35
2017-07-15T12:41:55.374Z,1000.21
2017-07-15T12:43:05.422Z,1000.25
2017-07-15T12:44:15.794Z,1000.37
2017-07-15T12:45:26.154Z,1000.28
2017-07-15T12:46:36.195Z,1000.31
2017-07-15T12:47:46.554Z,1000.3
2017-07-15T12:48:56.594Z,1000.37
2017-07-15T12:50:06.956Z,1000.42
2017-07-15T12:51:17.028Z,1000.42
2017-07-15T12:52:27.068Z,1000.44
2017-07-15T12:53:37.522Z,1000.44
2017-07-15T12:54:47.914Z,1000.46
2017-07-15T12:55:58.282Z,1000.47
2017-07-15T12:57:08.655Z,1000.54
2017-07-15T12:58:19.035Z,1000.43
2017-07-15T12:59:29.462Z,1000.53
2017-07-15T13:00:39.838Z,1000.45
2017-07-15T13:01:49.900Z,1000.49
2017-07-15T13:03:00.247Z,1000.48
2017-07-15T13:04:10.623Z,1000.51
2017-07-15T13:05:20.706Z,1000.6
2017-07-15T13:06:31.067Z,1000.57
2017-07-15T13:07:41.431Z,1000.61
2017-07-15T13:08:51.486Z,1000.57
2017-07-15T13:10:01.956Z,1000.59
2017-07-15T13:11:12.495Z,1000.64
2017-07-15T13:12:23.241Z,1000.61
2017-07-15T13:13:34.077Z,1000.64
2017-07-15T13:14:44.439Z,1000.69
2017-07-15T13:15:54.908Z,1000.71
2017-07-15T13:17:05.518Z,1000.69
2017-07-15T13:18:15.966Z,1000.65
2017-07-15T13:19:26.088Z,1000.67
2017-07-15T13:20:36.763Z,1000.7
2017-07-15T13:21:47.629Z,1000.71
2017-07-15T13:23:03.534Z,1000.7
2017-07-15T13:24:17.702Z,1000.7
2017-07-15T13:25:33.472Z,1000.71
2017-07-15T13:26:50.485Z,1000.8
2017-07-15T13:28:04.813Z,1000.79
2017-07-15T13:29:20.250Z,1000.78
2017-07-15T13:30:35.775Z,1000.77
2017-07-15T13:31:50.044Z,1000.77
2017-07-15T13:33:05.150Z,1000.79
2017-07-15T13:34:19.841Z,1000.79
2017-07-15T13:35:34.887Z,1000.74
2017-07-15T13:36:51.149Z,1000.82
2017-07-15T13:38:07.274Z,1000.79
2017-07-15T13:39:24.522Z,1000.79
2017-07-15T13:40:40.839Z,1000.79
2017-07-15T13:41:57.063Z,1000.82
2017-07-15T13:43:13.207Z,1000.76
2017-07-15T13:44:29.237Z,1000.78
2017-07-15T13:45:43.538Z,1000.74
2017-07-15T13:46:58.249Z,1000.78
2017-07-15T13:48:12.076Z,1000.8
2017-07-15T13:49:29.243Z,1000.72
2017-07-15T13:50:43.080Z,1000.69
2017-07-15T13:51:54.413Z,1000.74
2017-07-15T13:53:06.934Z,1000.69
2017-07-15T13:54:20.586Z,1000.64
2017-07-15T13:55:34.038Z,1000.69
2017-07-15T13:56:48.640Z,1000.64
2017-07-15T13:58:03.347Z,1000.72
2017-07-15T13:59:15.468Z,1000.6
2017-07-15T14:00:30.083Z,1000.61
2017-07-15T14:01:44.462Z,1000.6
2017-07-15T14:02:56.493Z,1000.57
2017-07-15T14:04:12.275Z,1000.65
2017-07-15T14:05:29.481Z,1000.64
2017-07-15T14:06:42.931Z,1000.62
2017-07-15T14:07:58.138Z,1000.65
2017-07-15T14:09:12.591Z,1000.62
2017-07-15T14:10:28.612Z,1000.6
2017-07-15T14:11:44.051Z,1000.63
2017-07-15T14:12:55.382Z,1000.68
2017-07-15T14:14:09.364Z,1000.72
2017-07-15T14:15:24.466Z,1000.65
2017-07-15T14:16:37.792Z,1000.7
2017-07-15T14:17:49.619Z,1000.87
2017-07-15T14:19:02.658Z,1000.75
2017-07-15T14:20:15.192Z,1000.75
2017-07-15T14:21:28.974Z,1000.74
2017-07-15T14:22:41.913Z,1000.85
2017-07-15T14:23:58.730Z,1000.78
2017-07-15T14:25:13.473Z,1000.78
2017-07-15T14:26:28.438Z,1000.82
2017-07-15T14:27:43.809Z,1000.79
2017-07-15T14:29:00.463Z,1000.77
2017-07-15T14:30:18.025Z,1000.73
2017-07-15T14:31:32.087Z,1000.77
2017-07-15T14:32:47.359Z,1000.8
2017-07-15T14:34:04.897Z,1000.72
2017-07-15T14:35:18.385Z,1000.72
2017-07-15T14:36:32.687Z,1000.71
2017-07-15T14:37:48.929Z,1000.73
2017-07-15T14:39:04.527Z,1000.71
2017-07-15T14:40:19.881Z,1000.72
2017-07-15T14:41:35.300Z,1000.75
2017-07-15T14:42:52.172Z,1000.77
2017-07-15T14:44:09.680Z,1000.74
2017-07-15T14:45:24.740Z,1000.76
2017-07-15T14:46:40.132Z,1000.8
2017-07-15T14:47:51.474Z,1000.87
2017-07-15T14:49:01.855Z,1000.95
2017-07-15T14:50:12.226Z,1001.04
2017-07-15T14:51:22.655Z,1001.17
2017-07-15T14:52:33.019Z,1001.26
2017-07-15T14:53:43.373Z,1001.45
2017-07-15T14:54:53.733Z,1001.49
2017-07-15T14:56:04.283Z,1001.63
2017-07-15T14:57:14.707Z,1001.74
2017-07-15T14:58:25.076Z,1001.62
2017-07-15T14:59:35.444Z,1001.66
2017-07-15T15:00:45.845Z,1001.71
2017-07-15T15:01:55.926Z,1001.76
2017-07-15T15:03:06.397Z,1001.78